Time;durP1;ratioP1;P1;durP2;ratioP2;P2;SDS_P1;SDS_P2;PMS_P1;PMS_P2;Temp;Humidity;BMP_temperature;BMP_pressure;BME280_temperature;BME280_humidity;BME280_pressure;Samples;Min_cycle;Max_cycle;Signal;HPM_P1;HPM_P2
2022/05/24 00:01:21;;;;;;;1.05;0.60;;;;;;;;;;5010860;28;20071;-59
2022/05/24 00:03:47;;;;;;;1.90;0.75;;;;;;;;;;5013013;28;20041;-59
2022/05/24 00:06:14;;;;;;;1.85;1.00;;;;;;;;;;5012806;28;20085;-59
2022/05/24 00:08:40;;;;;;;2.55;0.82;;;;;;;;;;5011702;28;20022;-59
2022/05/24 00:11:06;;;;;;;1.42;0.75;;;;;;;;;;5010769;28;20463;-59
2022/05/24 00:13:32;;;;;;;1.42;0.77;;;;;;;;;;5013392;28;20026;-59
2022/05/24 00:15:58;;;;;;;1.48;0.80;;;;;;;;;;5012166;28;20062;-59
2022/05/24 00:18:26;;;;;;;1.35;0.70;;;;;;;;;;5009423;28;20062;-58
2022/05/24 00:20:53;;;;;;;2.28;0.75;;;;;;;;;;5007738;28;20018;-58
2022/05/24 00:23:20;;;;;;;2.55;0.80;;;;;;;;;;5011936;28;20038;-59
2022/05/24 00:25:48;;;;;;;1.05;0.60;;;;;;;;;;5010289;28;20068;-59
2022/05/24 00:28:15;;;;;;;0.95;0.55;;;;;;;;;;5012260;28;20033;-59
2022/05/24 00:30:42;;;;;;;2.20;0.80;;;;;;;;;;5011690;28;20080;-59
2022/05/24 00:33:09;;;;;;;1.50;0.77;;;;;;;;;;5013036;28;20034;-59
2022/05/24 00:35:35;;;;;;;1.23;0.60;;;;;;;;;;5012018;28;20022;-59
2022/05/24 00:38:01;;;;;;;0.60;0.52;;;;;;;;;;5009367;28;20026;-59
2022/05/24 00:40:27;;;;;;;1.80;1.00;;;;;;;;;;5012757;28;20029;-59
2022/05/24 00:42:53;;;;;;;1.63;0.60;;;;;;;;;;5012986;28;20025;-59
2022/05/24 00:45:30;;;;;;;1.05;0.55;;;;;;;;;;5010038;28;20057;-59
2022/05/24 00:48:01;;;;;;;1.30;0.68;;;;;;;;;;5011347;28;20040;-59
2022/05/24 00:50:32;;;;;;;0.70;0.60;;;;;;;;;;5012930;28;20030;-59
2022/05/24 00:53:09;;;;;;;1.17;0.80;;;;;;;;;;5011497;28;20087;-60
2022/05/24 00:55:50;;;;;;;1.45;0.52;;;;;;;;;;5006852;28;20030;-59
2022/05/24 00:58:36;;;;;;;1.10;0.50;;;;;;;;;;5014043;28;20101;-59
2022/05/24 01:01:04;;;;;;;1.42;0.75;;;;;;;;;;5013950;28;20018;-59
2022/05/24 01:03:30;;;;;;;1.90;0.60;;;;;;;;;;5009879;28;20030;-59
2022/05/24 01:05:56;;;;;;;0.63;0.55;;;;;;;;;;5013555;28;20030;-59
2022/05/24 01:08:22;;;;;;;0.80;0.60;;;;;;;;;;4994995;28;20650;-59
2022/05/24 01:10:51;;;;;;;0.50;0.50;;;;;;;;;;5013341;28;20105;-58
2022/05/24 01:13:27;;;;;;;0.60;0.45;;;;;;;;;;5013132;28;20030;-59
2022/05/24 01:15:54;;;;;;;1.55;0.57;;;;;;;;;;5011958;28;20036;-59
2022/05/24 01:18:21;;;;;;;0.50;0.50;;;;;;;;;;5010258;28;20034;-59
2022/05/24 01:20:51;;;;;;;0.52;0.40;;;;;;;;;;5013423;28;20499;-59
2022/05/24 01:23:26;;;;;;;1.00;0.60;;;;;;;;;;5011751;28;20034;-59
2022/05/24 01:25:57;;;;;;;0.90;0.60;;;;;;;;;;5013658;28;20033;-59
2022/05/24 01:28:33;;;;;;;1.48;0.60;;;;;;;;;;5012979;28;20026;-59
2022/05/24 01:30:59;;;;;;;0.52;0.40;;;;;;;;;;5011968;28;20037;-59
2022/05/24 01:36:11;;;;;;;0.50;0.47;;;;;;;;;;5011623;28;20064;-59
2022/05/24 01:38:48;;;;;;;1.23;0.63;;;;;;;;;;5013708;28;20057;-59
2022/05/24 01:41:18;;;;;;;0.57;0.50;;;;;;;;;;5011727;28;20018;-59
2022/05/24 01:43:44;;;;;;;0.50;0.50;;;;;;;;;;5009120;28;20061;-59
2022/05/24 01:46:12;;;;;;;3.30;0.57;;;;;;;;;;5013180;28;20042;-59
2022/05/24 01:48:49;;;;;;;0.38;0.38;;;;;;;;;;5014091;28;20037;-59
2022/05/24 01:51:16;;;;;;;0.43;0.43;;;;;;;;;;5015155;28;20026;-59
2022/05/24 01:53:44;;;;;;;0.60;0.60;;;;;;;;;;5017330;28;20026;-59
2022/05/24 01:56:22;;;;;;;0.50;0.50;;;;;;;;;;5014770;28;20105;-59
2022/05/24 01:58:50;;;;;;;0.50;0.50;;;;;;;;;;4996539;28;20028;-59
2022/05/24 02:01:52;;;;;;;0.70;0.65;;;;;;;;;;5016282;28;20018;-59
2022/05/24 02:04:18;;;;;;;0.50;0.50;;;;;;;;;;4954604;29;20110;-59
2022/05/24 02:06:45;;;;;;;2.75;0.50;;;;;;;;;;5002453;28;20033;-59
2022/05/24 02:09:12;;;;;;;4.00;0.55;;;;;;;;;;5016836;28;20026;-59
2022/05/24 02:11:39;;;;;;;0.75;0.40;;;;;;;;;;4998305;28;20040;-59
2022/05/24 02:14:14;;;;;;;0.85;0.50;;;;;;;;;;5013488;28;20025;-58
2022/05/24 02:16:44;;;;;;;0.50;0.40;;;;;;;;;;5016803;28;20021;-59
2022/05/24 02:19:10;;;;;;;1.08;0.47;;;;;;;;;;5016902;28;20033;-59
2022/05/24 02:21:38;;;;;;;0.57;0.50;;;;;;;;;;5014465;28;20034;-59
2022/05/24 02:24:14;;;;;;;0.82;0.50;;;;;;;;;;5014561;28;20033;-58
2022/05/24 02:26:40;;;;;;;0.50;0.50;;;;;;;;;;5016550;28;20105;-59
2022/05/24 02:29:09;;;;;;;0.40;0.40;;;;;;;;;;5015943;28;20100;-59
2022/05/24 02:31:35;;;;;;;1.02;0.40;;;;;;;;;;5013580;28;20026;-59
2022/05/24 02:34:02;;;;;;;0.60;0.38;;;;;;;;;;5015178;28;20494;-59
2022/05/24 02:36:28;;;;;;;0.40;0.40;;;;;;;;;;5016702;28;20501;-58
2022/05/24 02:38:54;;;;;;;0.60;0.60;;;;;;;;;;5015749;28;20030;-58
2022/05/24 02:41:38;;;;;;;1.13;0.47;;;;;;;;;;5013445;28;20025;-58
2022/05/24 02:44:09;;;;;;;0.65;0.40;;;;;;;;;;4996336;28;20547;-58
2022/05/24 02:46:36;;;;;;;1.48;0.43;;;;;;;;;;5003940;28;20046;-58
2022/05/24 02:49:02;;;;;;;0.98;0.45;;;;;;;;;;5016308;28;20018;-58
2022/05/24 02:51:28;;;;;;;1.15;0.55;;;;;;;;;;5014453;28;20054;-59
2022/05/24 02:53:54;;;;;;;0.40;0.40;;;;;;;;;;5016170;28;20375;-58
2022/05/24 02:56:21;;;;;;;0.65;0.40;;;;;;;;;;5014449;28;20022;-59
2022/05/24 02:58:47;;;;;;;0.82;0.60;;;;;;;;;;5010882;28;20045;-58
2022/05/24 03:01:26;;;;;;;0.38;0.38;;;;;;;;;;5013200;28;20048;-59
2022/05/24 03:03:53;;;;;;;0.63;0.40;;;;;;;;;;5015024;28;20053;-58
2022/05/24 03:06:20;;;;;;;0.77;0.45;;;;;;;;;;5014876;28;20022;-59
2022/05/24 03:14:14;;;;;;;0.65;0.50;;;;;;;;;;4996227;28;20106;-58
2022/05/24 03:14:18;;;;;;;0.85;0.50;;;;;;;;;;4995284;28;20109;-59
2022/05/24 03:16:48;;;;;;;0.40;0.38;;;;;;;;;;4997805;28;20383;-58
2022/05/24 03:19:14;;;;;;;0.50;0.50;;;;;;;;;;4996609;28;20037;-58
2022/05/24 03:21:40;;;;;;;0.70;0.50;;;;;;;;;;5015645;28;20053;-58
2022/05/24 03:24:06;;;;;;;0.60;0.40;;;;;;;;;;5014082;28;20089;-58
2022/05/24 03:26:32;;;;;;;1.38;0.60;;;;;;;;;;5013103;28;20030;-58
2022/05/24 03:28:58;;;;;;;0.43;0.43;;;;;;;;;;5014150;28;20113;-59
2022/05/24 03:31:24;;;;;;;0.43;0.40;;;;;;;;;;5015067;28;20475;-58
2022/05/24 03:33:50;;;;;;;0.60;0.55;;;;;;;;;;5015477;28;20068;-58
2022/05/24 03:36:19;;;;;;;1.40;1.00;;;;;;;;;;5013359;28;20022;-59
2022/05/24 03:38:45;;;;;;;0.52;0.40;;;;;;;;;;5013526;28;20026;-58
2022/05/24 03:41:11;;;;;;;0.85;0.40;;;;;;;;;;5015113;28;20021;-58
2022/05/24 03:43:37;;;;;;;1.25;0.68;;;;;;;;;;5013756;28;20169;-58
2022/05/24 03:46:04;;;;;;;0.82;0.70;;;;;;;;;;5011332;28;20045;-58
2022/05/24 03:48:30;;;;;;;1.10;0.55;;;;;;;;;;5014942;28;20022;-58
2022/05/24 03:50:57;;;;;;;0.55;0.55;;;;;;;;;;5015119;28;20101;-58
2022/05/24 03:53:23;;;;;;;0.40;0.40;;;;;;;;;;5011983;28;20037;-59
2022/05/24 03:55:49;;;;;;;0.90;0.60;;;;;;;;;;5014706;28;20534;-58
2022/05/24 03:58:15;;;;;;;1.50;0.68;;;;;;;;;;5014839;28;20026;-58
2022/05/24 04:00:42;;;;;;;0.60;0.55;;;;;;;;;;5012890;28;20049;-58
2022/05/24 04:03:08;;;;;;;1.25;0.50;;;;;;;;;;5010923;28;20038;-60
2022/05/24 04:05:35;;;;;;;0.45;0.45;;;;;;;;;;5014854;28;20045;-58
2022/05/24 04:08:01;;;;;;;1.15;0.50;;;;;;;;;;5014643;28;20013;-58
2022/05/24 04:10:27;;;;;;;0.73;0.50;;;;;;;;;;5012193;28;20041;-59
2022/05/24 04:12:53;;;;;;;1.85;0.50;;;;;;;;;;5012968;28;20030;-58
2022/05/24 04:15:19;;;;;;;0.90;0.60;;;;;;;;;;5014748;28;20053;-58
2022/05/24 04:17:46;;;;;;;0.82;0.40;;;;;;;;;;5012710;28;20034;-58
2022/05/24 04:20:13;;;;;;;0.50;0.40;;;;;;;;;;5011268;28;20101;-59
2022/05/24 04:22:39;;;;;;;0.70;0.50;;;;;;;;;;5014377;28;20371;-58
2022/05/24 04:25:06;;;;;;;0.45;0.40;;;;;;;;;;5014543;28;20060;-58
2022/05/24 04:27:32;;;;;;;1.20;0.52;;;;;;;;;;5010874;28;20025;-58
2022/05/24 04:29:58;;;;;;;0.80;0.43;;;;;;;;;;5014558;28;20412;-58
2022/05/24 04:32:24;;;;;;;1.08;0.40;;;;;;;;;;5013536;28;20032;-59
2022/05/24 04:34:50;;;;;;;1.85;0.63;;;;;;;;;;5012556;28;20022;-59
2022/05/24 04:37:16;;;;;;;1.20;0.45;;;;;;;;;;5012732;28;20018;-58
2022/05/24 04:39:42;;;;;;;0.50;0.50;;;;;;;;;;5014426;28;20057;-59
2022/05/24 04:42:24;;;;;;;0.73;0.40;;;;;;;;;;5013500;28;20080;-58
2022/05/24 04:44:50;;;;;;;0.88;0.55;;;;;;;;;;5011826;28;20352;-58
2022/05/24 04:47:16;;;;;;;1.15;0.50;;;;;;;;;;5013765;28;20053;-58
2022/05/24 04:49:43;;;;;;;0.95;0.38;;;;;;;;;;5013311;28;20024;-58
2022/05/24 04:52:10;;;;;;;1.10;0.55;;;;;;;;;;5011338;28;20378;-59
2022/05/24 04:54:40;;;;;;;0.77;0.68;;;;;;;;;;5008508;28;20032;-58
2022/05/24 04:57:07;;;;;;;0.50;0.50;;;;;;;;;;5012447;28;20422;-58
2022/05/24 04:59:33;;;;;;;1.05;0.57;;;;;;;;;;5013705;28;20018;-58
2022/05/24 05:01:59;;;;;;;0.45;0.43;;;;;;;;;;5013583;28;20052;-58
2022/05/24 05:04:25;;;;;;;1.55;0.50;;;;;;;;;;5011080;28;20442;-59
2022/05/24 05:06:51;;;;;;;1.10;0.50;;;;;;;;;;5012308;28;20052;-58
2022/05/24 05:09:18;;;;;;;0.50;0.50;;;;;;;;;;5013795;28;20506;-58
2022/05/24 05:11:44;;;;;;;0.88;0.50;;;;;;;;;;5012412;28;20030;-58
2022/05/24 05:14:10;;;;;;;1.88;0.50;;;;;;;;;;5010540;28;20391;-58
2022/05/24 05:16:37;;;;;;;1.17;0.77;;;;;;;;;;5012378;28;20502;-58
2022/05/24 05:19:04;;;;;;;0.68;0.50;;;;;;;;;;5013432;28;20547;-58
2022/05/24 05:21:31;;;;;;;1.02;0.63;;;;;;;;;;5011859;28;20029;-59
2022/05/24 05:23:57;;;;;;;0.65;0.60;;;;;;;;;;5013867;28;20037;-61
2022/05/24 05:26:23;;;;;;;1.27;0.43;;;;;;;;;;5015542;28;20109;-59
2022/05/24 05:28:49;;;;;;;1.33;0.50;;;;;;;;;;5015946;28;20057;-59
2022/05/24 05:31:26;;;;;;;0.90;0.68;;;;;;;;;;5015144;28;20053;-55
2022/05/24 05:33:52;;;;;;;1.40;0.63;;;;;;;;;;5015829;28;20072;-58
2022/05/24 05:36:19;;;;;;;1.40;0.60;;;;;;;;;;5011978;28;20025;-58
2022/05/24 05:38:46;;;;;;;0.75;0.70;;;;;;;;;;4994230;28;20030;-57
2022/05/24 05:41:17;;;;;;;1.15;0.60;;;;;;;;;;4996070;28;20029;-58
2022/05/24 05:43:43;;;;;;;2.15;0.82;;;;;;;;;;4995437;28;20038;-58
2022/05/24 05:46:10;;;;;;;1.77;0.60;;;;;;;;;;4996075;28;20050;-58
2022/05/24 05:48:36;;;;;;;2.63;0.90;;;;;;;;;;4995309;28;20431;-58
2022/05/24 05:51:03;;;;;;;2.78;0.65;;;;;;;;;;4996197;28;20022;-59
2022/05/24 05:53:29;;;;;;;2.03;0.70;;;;;;;;;;5000117;28;20387;-59
2022/05/24 05:55:55;;;;;;;1.88;0.80;;;;;;;;;;5005208;28;20014;-58
2022/05/24 05:58:21;;;;;;;2.65;0.70;;;;;;;;;;4998157;28;20033;-59
2022/05/24 06:00:48;;;;;;;3.05;0.77;;;;;;;;;;5005524;28;20046;-59
2022/05/24 06:03:14;;;;;;;1.33;0.68;;;;;;;;;;5015112;28;20030;-58
2022/05/24 06:05:40;;;;;;;3.40;0.70;;;;;;;;;;5006208;28;20531;-59
2022/05/24 06:08:08;;;;;;;1.42;0.50;;;;;;;;;;5011278;28;20056;-59
2022/05/24 06:10:36;;;;;;;0.93;0.60;;;;;;;;;;5014354;28;20030;-58
2022/05/24 06:13:02;;;;;;;1.55;0.88;;;;;;;;;;5014932;28;20030;-59
2022/05/24 06:15:28;;;;;;;3.15;0.90;;;;;;;;;;5006733;28;20153;-59
2022/05/24 06:17:54;;;;;;;3.88;0.70;;;;;;;;;;4996651;28;20057;-59
2022/05/24 06:20:22;;;;;;;2.65;0.60;;;;;;;;;;4996580;28;20093;-59
2022/05/24 06:22:49;;;;;;;2.75;0.90;;;;;;;;;;4994705;28;20030;-59
2022/05/24 06:25:16;;;;;;;1.10;0.75;;;;;;;;;;4995026;28;20046;-58
2022/05/24 06:27:42;;;;;;;2.40;0.65;;;;;;;;;;4994449;28;20026;-58
2022/05/24 06:30:08;;;;;;;1.75;1.05;;;;;;;;;;5002189;28;20021;-58
2022/05/24 06:32:34;;;;;;;1.73;1.25;;;;;;;;;;5014162;28;20025;-59
2022/05/24 06:35:00;;;;;;;1.73;0.80;;;;;;;;;;5012466;28;20037;-58
2022/05/24 06:37:26;;;;;;;1.90;0.80;;;;;;;;;;4996139;28;20471;-58
2022/05/24 06:39:52;;;;;;;2.40;0.50;;;;;;;;;;5014993;28;20105;-58
2022/05/24 06:42:18;;;;;;;1.15;0.80;;;;;;;;;;5014638;28;20022;-58
2022/05/24 06:44:44;;;;;;;0.90;0.77;;;;;;;;;;5013421;28;20117;-60
2022/05/24 06:47:11;;;;;;;3.30;1.27;;;;;;;;;;5014175;28;20120;-59
2022/05/24 06:49:37;;;;;;;3.38;0.60;;;;;;;;;;5013758;28;20109;-58
2022/05/24 06:52:04;;;;;;;1.08;0.80;;;;;;;;;;5014809;28;20034;-59
2022/05/24 06:54:30;;;;;;;2.05;0.80;;;;;;;;;;5009682;28;20022;-58
2022/05/24 06:56:56;;;;;;;2.00;1.20;;;;;;;;;;4995226;28;20065;-60
2022/05/24 07:02:26;;;;;;;1.50;0.80;;;;;;;;;;4994365;28;20109;-59
2022/05/24 07:04:59;;;;;;;1.58;0.47;;;;;;;;;;4994493;28;20547;-58
2022/05/24 07:07:25;;;;;;;1.65;0.70;;;;;;;;;;4994073;28;20132;-61
2022/05/24 07:09:52;;;;;;;2.38;0.63;;;;;;;;;;4994439;28;20030;-59
2022/05/24 07:12:18;;;;;;;1.48;0.60;;;;;;;;;;4994550;28;20062;-59
2022/05/24 07:14:44;;;;;;;1.50;0.73;;;;;;;;;;4993743;28;20057;-60
2022/05/24 07:17:10;;;;;;;1.40;0.90;;;;;;;;;;4994038;28;20411;-59
2022/05/24 07:19:38;;;;;;;2.15;0.73;;;;;;;;;;4993214;28;20023;-59
2022/05/24 07:22:04;;;;;;;2.35;0.60;;;;;;;;;;4997316;28;20105;-59
2022/05/24 07:24:31;;;;;;;1.90;0.80;;;;;;;;;;4993551;28;20038;-60
2022/05/24 07:26:57;;;;;;;1.17;0.75;;;;;;;;;;4993661;28;20018;-60
2022/05/24 07:29:23;;;;;;;2.08;0.70;;;;;;;;;;4994455;28;20105;-59
2022/05/24 07:31:49;;;;;;;1.00;0.50;;;;;;;;;;4993080;28;20464;-61
2022/05/24 07:34:15;;;;;;;1.25;0.60;;;;;;;;;;4993996;28;20400;-61
2022/05/24 07:36:41;;;;;;;1.05;0.50;;;;;;;;;;5007721;28;20024;-61
2022/05/24 07:39:07;;;;;;;2.03;0.60;;;;;;;;;;5013386;28;20026;-61
2022/05/24 07:47:18;;;;;;;1.25;0.40;;;;;;;;;;4968874;28;20053;-60
2022/05/24 07:49:44;;;;;;;1.02;0.40;;;;;;;;;;5012645;28;20065;-51
2022/05/24 07:52:10;;;;;;;1.52;0.60;;;;;;;;;;5001384;28;20058;-52
2022/05/24 07:54:36;;;;;;;0.55;0.50;;;;;;;;;;4997948;28;20080;-55
2022/05/24 07:57:03;;;;;;;2.13;0.70;;;;;;;;;;5006170;28;20026;-56
2022/05/24 07:59:29;;;;;;;1.50;0.65;;;;;;;;;;5000088;28;20018;-47
2022/05/24 08:01:55;;;;;;;1.60;0.68;;;;;;;;;;4993558;28;20445;-49
2022/05/24 08:04:22;;;;;;;1.73;0.60;;;;;;;;;;4993107;28;20499;-47
2022/05/24 08:06:48;;;;;;;1.92;0.57;;;;;;;;;;5008109;28;20026;-47
2022/05/24 08:09:14;;;;;;;1.35;0.60;;;;;;;;;;5012908;28;20026;-49
2022/05/24 08:11:40;;;;;;;14.23;1.05;;;;;;;;;;5012003;28;20030;-48
2022/05/24 08:14:06;;;;;;;2.42;0.68;;;;;;;;;;5009646;28;20091;-49
2022/05/24 08:16:33;;;;;;;0.40;0.35;;;;;;;;;;5011935;28;20026;-42
2022/05/24 08:19:01;;;;;;;1.58;0.63;;;;;;;;;;5011925;28;20022;-47
2022/05/24 08:21:27;;;;;;;1.38;0.40;;;;;;;;;;4994281;28;20482;-47
2022/05/24 08:23:53;;;;;;;1.67;0.40;;;;;;;;;;5012158;28;20069;-43
2022/05/24 08:26:19;;;;;;;0.98;0.57;;;;;;;;;;5012857;28;20026;-49
2022/05/24 08:28:48;;;;;;;1.20;0.52;;;;;;;;;;5012249;28;20049;-47
2022/05/24 08:31:16;;;;;;;0.85;0.60;;;;;;;;;;5012644;28;20029;-47
2022/05/24 08:33:43;;;;;;;4.97;0.75;;;;;;;;;;5012002;28;20030;-47
2022/05/24 08:36:10;;;;;;;1.10;0.40;;;;;;;;;;5012346;28;20044;-49
2022/05/24 08:38:36;;;;;;;3.42;0.60;;;;;;;;;;5012082;28;20061;-48
2022/05/24 08:41:04;;;;;;;0.55;0.40;;;;;;;;;;5012655;28;20072;-48
2022/05/24 08:43:30;;;;;;;0.80;0.45;;;;;;;;;;5011871;28;20353;-44
2022/05/24 08:48:47;;;;;;;2.42;0.50;;;;;;;;;;5007892;28;20450;-47
2022/05/24 08:51:18;;;;;;;1.33;0.32;;;;;;;;;;5011982;28;20463;-48
2022/05/24 08:53:46;;;;;;;2.03;0.67;;;;;;;;;;5011725;28;20025;-49
2022/05/24 08:56:19;;;;;;;2.22;0.55;;;;;;;;;;5012027;28;20022;-48
2022/05/24 08:58:50;;;;;;;1.42;0.40;;;;;;;;;;5010883;28;20021;-48
2022/05/24 09:01:21;;;;;;;1.38;0.40;;;;;;;;;;5012574;28;20054;-47
2022/05/24 09:03:47;;;;;;;1.52;0.47;;;;;;;;;;5011502;28;20033;-45
2022/05/24 09:06:34;;;;;;;1.95;0.40;;;;;;;;;;5011925;28;20080;-47
2022/05/24 09:09:19;;;;;;;1.75;0.57;;;;;;;;;;4972532;28;20034;-49
2022/05/24 09:11:50;;;;;;;4.60;1.30;;;;;;;;;;5011156;28;20038;-46
2022/05/24 09:14:25;;;;;;;1.08;0.50;;;;;;;;;;5012159;28;20030;-48
2022/05/24 09:16:52;;;;;;;0.63;0.43;;;;;;;;;;5011423;28;20400;-47
2022/05/24 09:19:22;;;;;;;0.43;0.40;;;;;;;;;;5011744;28;20026;-51
2022/05/24 09:21:52;;;;;;;0.80;0.32;;;;;;;;;;5010644;28;20033;-49
2022/05/24 09:24:20;;;;;;;0.50;0.40;;;;;;;;;;5011667;28;20030;-48
2022/05/24 09:27:06;;;;;;;0.50;0.40;;;;;;;;;;5011011;28;20112;-51
2022/05/24 09:29:32;;;;;;;1.50;0.82;;;;;;;;;;5011694;28;20026;-46
2022/05/24 09:32:00;;;;;;;1.27;0.40;;;;;;;;;;5012099;28;20080;-50
2022/05/24 09:34:30;;;;;;;0.60;0.40;;;;;;;;;;5011874;28;20104;-49
2022/05/24 09:37:28;;;;;;;0.90;0.40;;;;;;;;;;5011132;28;20030;-49
2022/05/24 09:40:08;;;;;;;0.88;0.32;;;;;;;;;;4988612;28;20041;-51
2022/05/24 09:42:36;;;;;;;1.27;0.50;;;;;;;;;;5011288;28;20030;-47
2022/05/24 09:45:16;;;;;;;1.02;0.50;;;;;;;;;;5011945;28;20034;-47
2022/05/24 09:47:42;;;;;;;0.52;0.40;;;;;;;;;;5011293;28;20032;-46
2022/05/24 09:50:30;;;;;;;0.45;0.30;;;;;;;;;;5011443;28;20030;-49
2022/05/24 09:53:12;;;;;;;1.80;0.50;;;;;;;;;;5011048;28;20018;-48
2022/05/24 09:55:45;;;;;;;0.45;0.32;;;;;;;;;;5011237;28;20057;-48
2022/05/24 09:58:25;;;;;;;0.40;0.30;;;;;;;;;;5011962;28;20367;-48
2022/05/24 10:00:57;;;;;;;3.10;0.50;;;;;;;;;;5011401;28;20026;-48
2022/05/24 10:03:23;;;;;;;;;;;;;;;;;;5012277;28;20486;-46
2022/05/24 10:06:04;;;;;;;1.15;0.60;;;;;;;;;;5010724;28;19909;-48
2022/05/24 10:08:34;;;;;;;0.87;0.40;;;;;;;;;;5011859;28;20052;-48
2022/05/24 10:11:00;;;;;;;0.85;0.30;;;;;;;;;;5015277;28;20033;-47
2022/05/24 10:13:29;;;;;;;1.98;0.40;;;;;;;;;;5015391;28;20049;-47
2022/05/24 10:16:06;;;;;;;3.05;0.50;;;;;;;;;;5014365;28;20022;-47
2022/05/24 10:18:32;;;;;;;0.38;0.38;;;;;;;;;;5015199;28;20113;-48
2022/05/24 10:21:17;;;;;;;0.35;0.30;;;;;;;;;;5014601;28;20058;-45
2022/05/24 10:23:52;;;;;;;0.38;0.30;;;;;;;;;;5014182;28;20558;-46
2022/05/24 10:26:39;;;;;;;1.52;0.63;;;;;;;;;;5015225;28;20371;-46
2022/05/24 10:29:11;;;;;;;0.43;0.40;;;;;;;;;;5015215;28;20029;-48
2022/05/24 10:31:49;;;;;;;0.93;0.30;;;;;;;;;;5014905;28;20109;-43
2022/05/24 10:40:12;;;;;;;0.43;0.30;;;;;;;;;;5015098;28;20518;-47
2022/05/24 10:42:50;;;;;;;1.58;0.30;;;;;;;;;;5014037;28;20724;-50
2022/05/24 10:45:17;;;;;;;1.48;0.40;;;;;;;;;;5014530;28;20049;-50
2022/05/24 10:48:00;;;;;;;1.60;0.93;;;;;;;;;;5014066;28;20029;-48
2022/05/24 10:50:39;;;;;;;0.90;0.40;;;;;;;;;;5014804;28;20022;-43
2022/05/24 10:53:08;;;;;;;0.73;0.30;;;;;;;;;;5014393;28;20076;-50
2022/05/24 10:55:57;;;;;;;2.22;0.93;;;;;;;;;;5014296;28;20025;-45
2022/05/24 10:58:24;;;;;;;1.88;0.40;;;;;;;;;;5001640;28;20038;-46
2022/05/24 11:00:52;;;;;;;1.73;0.40;;;;;;;;;;5013821;28;20375;-49
2022/05/24 11:03:26;;;;;;;0.95;0.40;;;;;;;;;;5014434;28;20033;-44
2022/05/24 11:05:58;;;;;;;0.45;0.45;;;;;;;;;;4996006;28;20456;-50
2022/05/24 11:08:36;;;;;;;0.43;0.20;;;;;;;;;;5013904;28;20044;-48
2022/05/24 11:11:11;;;;;;;1.02;0.30;;;;;;;;;;5014125;28;20105;-50
2022/05/24 11:13:41;;;;;;;0.65;0.40;;;;;;;;;;5014055;28;20042;-45
2022/05/24 11:16:11;;;;;;;0.57;0.57;;;;;;;;;;5013996;28;20029;-46
2022/05/24 11:18:39;;;;;;;0.30;0.30;;;;;;;;;;5013540;28;20034;-47
2022/05/24 11:21:08;;;;;;;0.32;0.32;;;;;;;;;;5013479;28;20467;-47
2022/05/24 11:23:37;;;;;;;0.43;0.35;;;;;;;;;;5013832;28;20113;-49
2022/05/24 11:26:12;;;;;;;1.33;0.57;;;;;;;;;;5013516;28;20075;-47
2022/05/24 11:28:43;;;;;;;4.20;0.50;;;;;;;;;;5011940;28;20411;-47
2022/05/24 11:31:23;;;;;;;0.95;0.43;;;;;;;;;;4994082;28;20026;-49
2022/05/24 11:33:51;;;;;;;0.93;0.25;;;;;;;;;;5011401;28;20041;-50
2022/05/24 11:36:21;;;;;;;0.95;0.50;;;;;;;;;;5013368;28;20380;-49
2022/05/24 11:38:48;;;;;;;1.25;0.50;;;;;;;;;;5012366;28;20026;-47
2022/05/24 11:41:19;;;;;;;0.35;0.35;;;;;;;;;;5013746;28;20104;-49
2022/05/24 11:43:46;;;;;;;0.80;0.40;;;;;;;;;;5012366;28;20026;-51
2022/05/24 11:46:30;;;;;;;1.55;0.90;;;;;;;;;;5012942;28;20103;-46
2022/05/24 11:48:57;;;;;;;3.00;0.95;;;;;;;;;;5012638;28;20112;-47
2022/05/24 11:51:34;;;;;;;1.10;0.50;;;;;;;;;;5013324;28;20037;-47
2022/05/24 11:54:02;;;;;;;0.68;0.60;;;;;;;;;;5012381;28;20022;-48
2022/05/24 11:56:29;;;;;;;1.58;0.30;;;;;;;;;;5013444;28;20037;-47
2022/05/24 11:59:00;;;;;;;1.05;0.40;;;;;;;;;;5012369;28;20064;-49
2022/05/24 12:01:34;;;;;;;4.32;1.10;;;;;;;;;;5013220;28;20030;-47
2022/05/24 12:09:54;;;;;;;0.68;0.40;;;;;;;;;;5008010;28;20116;-47
2022/05/24 12:12:21;;;;;;;0.28;0.28;;;;;;;;;;4993589;28;20018;-48
2022/05/24 12:14:47;;;;;;;0.70;0.40;;;;;;;;;;4992837;28;20038;-47
2022/05/24 12:17:15;;;;;;;0.65;0.50;;;;;;;;;;4993422;28;20034;-47
2022/05/24 12:19:48;;;;;;;0.40;0.40;;;;;;;;;;4992495;28;20022;-48
2022/05/24 12:22:13;;;;;;;0.45;0.20;;;;;;;;;;4993218;28;20034;-47
2022/05/24 12:24:40;;;;;;;2.42;0.50;;;;;;;;;;4991997;28;20101;-48
2022/05/24 12:27:24;;;;;;;0.30;0.25;;;;;;;;;;4993223;28;20037;-47
2022/05/24 12:29:53;;;;;;;0.60;0.32;;;;;;;;;;4992397;28;20459;-47
2022/05/24 12:32:20;;;;;;;0.45;0.32;;;;;;;;;;4992728;28;20383;-48
2022/05/24 12:34:46;;;;;;;0.38;0.38;;;;;;;;;;5000842;28;20434;-47
2022/05/24 12:37:19;;;;;;;1.20;0.40;;;;;;;;;;5012554;28;20026;-47
2022/05/24 12:40:05;;;;;;;0.77;0.43;;;;;;;;;;5011197;28;20053;-47
2022/05/24 12:42:31;;;;;;;0.85;0.40;;;;;;;;;;5012742;28;20057;-47
2022/05/24 12:45:00;;;;;;;2.05;0.40;;;;;;;;;;5011152;28;20041;-47
2022/05/24 12:47:26;;;;;;;1.80;0.45;;;;;;;;;;5012779;28;20034;-47
2022/05/24 12:49:58;;;;;;;3.55;0.40;;;;;;;;;;5011315;28;20387;-47
2022/05/24 12:52:26;;;;;;;1.10;0.45;;;;;;;;;;5011951;28;20522;-47
2022/05/24 12:54:54;;;;;;;0.93;0.43;;;;;;;;;;5011391;28;20041;-50
2022/05/24 12:57:30;;;;;;;0.55;0.40;;;;;;;;;;5012391;28;20026;-47
2022/05/24 12:59:57;;;;;;;3.13;0.52;;;;;;;;;;5010983;28;20025;-51
2022/05/24 13:02:38;;;;;;;1.20;0.50;;;;;;;;;;5012391;28;20026;-48
2022/05/24 13:05:07;;;;;;;1.85;0.40;;;;;;;;;;5011990;28;20030;-47
2022/05/24 13:07:41;;;;;;;3.53;0.40;;;;;;;;;;5012538;28;20030;-47
2022/05/24 13:10:22;;;;;;;2.47;0.40;;;;;;;;;;5011822;28;20108;-48
2022/05/24 13:12:54;;;;;;;1.05;0.32;;;;;;;;;;5011517;28;20029;-50
2022/05/24 13:15:22;;;;;;;4.35;0.60;;;;;;;;;;5011128;28;20038;-48
2022/05/24 13:17:52;;;;;;;0.88;0.35;;;;;;;;;;5011373;28;20104;-47
2022/05/24 13:20:18;;;;;;;0.75;0.52;;;;;;;;;;5012130;28;20029;-48
2022/05/24 13:22:50;;;;;;;0.93;0.35;;;;;;;;;;5011278;28;20116;-47
2022/05/24 13:25:48;;;;;;;1.20;0.40;;;;;;;;;;5012059;28;20030;-49
2022/05/24 13:28:31;;;;;;;1.65;0.43;;;;;;;;;;4955478;28;20040;-49
2022/05/24 13:33:45;;;;;;;0.70;0.30;;;;;;;;;;5001067;28;20400;-47
2022/05/24 13:36:18;;;;;;;0.60;0.40;;;;;;;;;;5006863;28;20030;-47
2022/05/24 13:38:44;;;;;;;0.80;0.50;;;;;;;;;;4997863;28;20022;-50
2022/05/24 13:41:11;;;;;;;1.65;0.50;;;;;;;;;;4993192;28;20523;-50
2022/05/24 13:43:43;;;;;;;0.90;0.60;;;;;;;;;;4991667;28;20337;-48
2022/05/24 13:46:16;;;;;;;1.38;0.70;;;;;;;;;;4995622;28;20133;-49
2022/05/24 13:48:44;;;;;;;1.02;0.75;;;;;;;;;;4995428;28;20435;-48
2022/05/24 13:51:18;;;;;;;1.02;0.50;;;;;;;;;;4995775;28;20495;-51
2022/05/24 13:53:44;;;;;;;0.75;0.40;;;;;;;;;;5002321;28;20053;-48
2022/05/24 13:56:21;;;;;;;1.85;0.80;;;;;;;;;;5015527;28;20037;-47
2022/05/24 13:58:49;;;;;;;2.25;0.82;;;;;;;;;;5014883;28;20045;-47
2022/05/24 14:01:31;;;;;;;1.40;0.60;;;;;;;;;;5014679;28;20562;-46
2022/05/24 14:04:02;;;;;;;1.88;0.93;;;;;;;;;;5013617;28;20038;-47
2022/05/24 14:06:29;;;;;;;1.00;0.43;;;;;;;;;;5014364;28;20370;-49
2022/05/24 14:08:56;;;;;;;2.25;0.70;;;;;;;;;;5014018;28;20022;-46
2022/05/24 14:11:33;;;;;;;2.13;0.77;;;;;;;;;;5014847;28;20530;-47
2022/05/24 14:14:00;;;;;;;1.23;0.60;;;;;;;;;;5000964;28;21359;-46
2022/05/24 14:16:29;;;;;;;2.13;0.50;;;;;;;;;;5002111;28;20085;-46
2022/05/24 14:18:55;;;;;;;1.30;0.90;;;;;;;;;;5012316;28;20038;-46
2022/05/24 14:21:28;;;;;;;2.03;0.55;;;;;;;;;;5013332;28;20026;-46
2022/05/24 14:23:55;;;;;;;0.85;0.60;;;;;;;;;;5014005;28;20038;-47
2022/05/24 14:26:21;;;;;;;0.85;0.70;;;;;;;;;;5014930;28;20415;-48
2022/05/24 14:28:47;;;;;;;2.00;0.70;;;;;;;;;;5013805;28;20030;-46
2022/05/24 14:31:20;;;;;;;0.82;0.40;;;;;;;;;;5014515;28;20026;-41
2022/05/24 14:33:46;;;;;;;1.83;0.57;;;;;;;;;;5012460;28;20033;-46
2022/05/24 14:36:13;;;;;;;2.20;0.70;;;;;;;;;;5014170;28;20036;-47
2022/05/24 14:38:40;;;;;;;2.80;0.57;;;;;;;;;;5011633;28;20084;-47
2022/05/24 14:41:17;;;;;;;4.07;0.85;;;;;;;;;;5014567;28;20424;-53
2022/05/24 14:43:47;;;;;;;2.42;0.95;;;;;;;;;;5013752;28;20169;-46
2022/05/24 14:46:14;;;;;;;4.07;0.60;;;;;;;;;;5014348;28;20050;-44
2022/05/24 14:48:41;;;;;;;4.25;0.70;;;;;;;;;;5013914;28;20034;-45
2022/05/24 14:51:07;;;;;;;2.70;0.80;;;;;;;;;;5014237;28;20084;-48
2022/05/24 14:53:33;;;;;;;3.25;0.88;;;;;;;;;;5013914;28;20037;-43
2022/05/24 14:55:59;;;;;;;3.65;0.77;;;;;;;;;;5011417;28;20845;-51
2022/05/24 14:58:26;;;;;;;3.85;0.70;;;;;;;;;;5010991;28;20033;-47
2022/05/24 15:00:53;;;;;;;2.72;0.80;;;;;;;;;;5009294;28;20030;-46
2022/05/24 15:03:19;;;;;;;1.23;0.77;;;;;;;;;;5015392;28;20033;-46
2022/05/24 15:05:45;;;;;;;2.15;0.60;;;;;;;;;;5013864;28;20026;-48
2022/05/24 15:16:27;;;;;;;2.35;0.80;;;;;;;;;;5013644;28;20045;-46
2022/05/24 15:18:53;;;;;;;3.95;0.90;;;;;;;;;;5012572;28;20026;-54
2022/05/24 15:21:21;;;;;;;4.20;0.82;;;;;;;;;;5013763;28;20033;-47
2022/05/24 15:23:50;;;;;;;3.13;0.70;;;;;;;;;;5011647;28;20026;-44
2022/05/24 15:26:19;;;;;;;2.30;0.80;;;;;;;;;;5013309;28;20386;-46
2022/05/24 15:28:46;;;;;;;6.30;0.93;;;;;;;;;;5012271;28;20033;-43
2022/05/24 15:31:12;;;;;;;2.38;0.73;;;;;;;;;;5013485;28;20455;-48
2022/05/24 15:33:39;;;;;;;2.97;1.00;;;;;;;;;;5013301;28;20030;-45
2022/05/24 15:36:06;;;;;;;3.38;0.77;;;;;;;;;;5012801;28;20463;-48